METAR Data
IDs: Format: Raw Decoded Include TAF

Data at: 0610 UTC 07 Dec 2022

KTMK 070550Z AUTO 00000KT 5SM BR OVC043 05/05 A3021 RMK AO2
KTMK 070530Z AUTO 00000KT 5SM BR OVC045 05/05 A3021 RMK AO2
KTMK 070510Z AUTO 00000KT 5SM BR OVC045 05/05 A3021 RMK AO2
KTMK 070450Z AUTO 00000KT 5SM BR OVC043 05/05 A3020 RMK AO2
KTMK 070430Z AUTO 00000KT 7SM OVC043 05/05 A3020 RMK AO2
KTMK 070410Z AUTO 00000KT 10SM OVC043 05/05 A3020 RMK AO2
KTMK 070350Z AUTO 00000KT 10SM OVC043 06/05 A3020 RMK AO2
KTMK 070330Z AUTO 00000KT 10SM OVC045 06/05 A3020 RMK AO2
KTMK 070310Z AUTO 00000KT 10SM OVC043 06/05 A3020 RMK AO2
KTMK 070250Z AUTO 00000KT 10SM OVC045 06/05 A3019 RMK AO2
KTMK 070230Z AUTO 00000KT 10SM SCT040 OVC047 06/05 A3019 RMK AO2
KTMK 070210Z AUTO 00000KT 10SM SCT037 OVC049 06/05 A3018 RMK AO2
KTMK 070150Z AUTO 10004KT 10SM SCT035 OVC049 06/05 A3019 RMK AO2 P0001
KTMK 070130Z AUTO 11003KT 10SM SCT029 OVC035 06/06 A3019 RMK AO2 P0001
KTMK 070110Z AUTO 12004KT 10SM SCT016 BKN023 OVC029 06/05 A3019 RMK AO2 P0001
KTMK 070050Z AUTO 11004KT 10SM OVC016 06/06 A3019 RMK AO2 P0001
KTMK 070030Z AUTO 00000KT 5SM -RA BKN016 OVC023 06/06 A3019 RMK AO2 P0001
KTMK 070010Z AUTO 00000KT 3SM DZ BKN018 OVC023 07/06 A3018 RMK AO2
KTMK 062350Z AUTO 00000KT 10SM BKN020 OVC029 07/06 A3018 RMK AO2 P0001
KTMK 062330Z AUTO 00000KT 10SM SCT016 OVC029 07/06 A3018 RMK AO2 P0001
KTMK 062310Z AUTO 00000KT 2 1/2SM RA OVC016 06/06 A3018 RMK AO2
KTMK 062250Z AUTO 00000KT 4SM DZ BKN007 OVC012 07/06 A3017 RMK AO2 P0001
KTMK 062230Z AUTO 00000KT 4SM DZ OVC007 07/06 A3017 RMK AO2
KTMK 062210Z AUTO 30003KT 4SM -RA SCT007 OVC012 07/06 A3017 RMK AO2
KTMK 062150Z AUTO 00000KT 5SM BR BKN015 OVC020 07/06 A3017 RMK AO2
KTMK 062130Z AUTO 00000KT 7SM -DZ BKN022 OVC030 07/05 A3017 RMK AO2
KTMK 062110Z AUTO 00000KT 7SM -DZ BKN028 OVC034 08/05 A3017 RMK AO2
KTMK 062050Z AUTO 00000KT 10SM SCT025 OVC035 08/05 A3017 RMK AO2
KTMK 062030Z AUTO 00000KT 10SM BKN025 BKN031 OVC037 08/05 A3018 RMK AO2
KTMK 062010Z AUTO 00000KT 10SM SCT026 BKN031 OVC039 07/05 A3017 RMK AO2
KTMK 061950Z AUTO 00000KT 10SM SCT029 OVC039 07/05 A3018 RMK AO2
KTMK 061930Z AUTO 00000KT 10SM OVC039 07/05 A3018 RMK AO2
KTMK 061910Z AUTO 00000KT 10SM BKN039 OVC050 07/05 A3018 RMK AO2
KTMK 061850Z AUTO 00000KT 10SM BKN039 OVC050 07/04 A3018 RMK AO2
KTMK 061830Z AUTO 03003KT 10SM BKN041 OVC050 07/05 A3018 RMK AO2
KTMK 061810Z AUTO 00000KT 10SM SCT027 SCT041 OVC050 06/04 A3017 RMK AO2
KTMK 061750Z AUTO 00000KT 10SM BKN043 OVC050 06/04 A3017 RMK AO2
KTMK 061730Z AUTO 00000KT 10SM BKN043 OVC050 06/04 A3017 RMK AO2
KTMK 061710Z AUTO 00000KT 10SM SCT023 BKN045 OVC050 05/04 A3016 RMK AO2
KTMK 061650Z AUTO 00000KT 10SM SCT025 OVC050 05/04 A3016 RMK AO2
KTMK 061630Z AUTO 00000KT 10SM SCT023 SCT032 OVC055 05/04 A3015 RMK AO2
KTMK 061610Z AUTO 00000KT 10SM OVC023 05/04 A3015 RMK AO2
KTMK 061550Z AUTO 00000KT 10SM OVC023 05/03 A3014 RMK AO2
KTMK 061530Z AUTO 00000KT 10SM BKN021 BKN042 OVC048 05/03 A3014 RMK AO2
KTMK 061510Z AUTO 00000KT 10SM OVC021 05/04 A3014 RMK AO2
KTMK 061450Z AUTO 00000KT 10SM OVC021 05/04 A3014 RMK AO2
KTMK 061430Z AUTO 00000KT 10SM OVC021 05/03 A3013 RMK AO2
KTMK 061410Z AUTO 00000KT 10SM BKN021 BKN027 OVC050 05/03 A3012 RMK AO2
KTMK 061350Z AUTO 00000KT 10SM BKN021 OVC027 05/03 A3012 RMK AO2
KTMK 061330Z AUTO 00000KT 10SM BKN021 BKN026 OVC055 04/03 A3012 RMK AO2
KTMK 061310Z AUTO 00000KT 10SM BKN023 BKN027 OVC050 05/03 A3012 RMK AO2
KTMK 061250Z AUTO 00000KT 10SM BKN023 BKN044 OVC050 05/03 A3012 RMK AO2
KTMK 061210Z AUTO 14003KT 10SM SCT023 OVC050 05/03 A3011 RMK AO2
KTMK 061150Z AUTO 00000KT 10SM BKN048 OVC050 05/03 A3011 RMK AO2
KTMK 061130Z AUTO 00000KT 10SM OVC050 05/04 A3011 RMK AO2
KTMK 061110Z AUTO 00000KT 10SM OVC049 05/04 A3011 RMK AO2
KTMK 061050Z AUTO 00000KT 10SM OVC049 05/04 A3011 RMK AO2
KTMK 061030Z AUTO 00000KT 10SM OVC049 05/04 A3011 RMK AO2
KTMK 061010Z AUTO 00000KT 10SM OVC049 05/04 A3011 RMK AO2
KTMK 060950Z AUTO 00000KT 10SM OVC049 05/04 A3010 RMK AO2
KTMK 060930Z AUTO 00000KT 10SM OVC047 05/04 A3010 RMK AO2
KTMK 060910Z AUTO 13003KT 10SM OVC047 05/04 A3009 RMK AO2
KTMK 060850Z AUTO 00000KT 10SM OVC047 05/04 A3010 RMK AO2
KTMK 060830Z AUTO 00000KT 10SM OVC047 05/04 A3009 RMK AO2
KTMK 060810Z AUTO 13003KT 10SM OVC047 05/04 A3009 RMK AO2
KTMK 060750Z AUTO 12003KT 10SM OVC047 05/04 A3009 RMK AO2
KTMK 060730Z AUTO 00000KT 10SM OVC047 05/05 A3009 RMK AO2
KTMK 060650Z AUTO 00000KT 10SM OVC047 05/05 A3009 RMK AO2
KTMK 060630Z AUTO 00000KT 10SM OVC047 06/05 A3008 RMK AO2
KTMK 060610Z AUTO 00000KT 10SM OVC047 06/05 A3008 RMK AO2
KTMK 060550Z AUTO 00000KT 10SM BKN018 OVC047 06/05 A3008 RMK AO2
KTMK 060530Z AUTO 00000KT 10SM OVC016 06/05 A3007 RMK AO2
KTMK 060510Z AUTO 00000KT 10SM OVC016 06/05 A3007 RMK AO2
KTMK 060450Z AUTO 00000KT 10SM BKN016 OVC023 05/05 A3007 RMK AO2
KTMK 060430Z AUTO 00000KT 10SM BKN016 OVC046 06/05 A3006 RMK AO2
KTMK 060410Z AUTO 00000KT 10SM SCT019 OVC046 05/05 A3006 RMK AO2
KTMK 060350Z AUTO 00000KT 10SM OVC044 06/05 A3005 RMK AO2
KTMK 060330Z AUTO 00000KT 10SM OVC044 06/05 A3004 RMK AO2
KTMK 060310Z AUTO 00000KT 10SM OVC044 06/05 A3004 RMK AO2
KTMK 060250Z AUTO 00000KT 10SM OVC044 06/05 A3003 RMK AO2
KTMK 060230Z AUTO 00000KT 10SM BKN021 OVC044 06/05 A3004 RMK AO2
KTMK 060210Z AUTO 00000KT 10SM OVC021 06/05 A3003 RMK AO2
KTMK 060150Z AUTO 00000KT 10SM OVC021 06/05 A3004 RMK AO2
KTMK 060130Z AUTO 00000KT 10SM OVC019 06/05 A3003 RMK AO2
KTMK 060110Z AUTO 00000KT 10SM OVC019 07/05 A3003 RMK AO2
KTMK 060050Z AUTO 00000KT 10SM BKN021 OVC049 07/05 A3002 RMK AO2
KTMK 060030Z AUTO 21003KT 10SM SCT019 OVC049 08/05 A3001 RMK AO2
KTMK 060010Z AUTO 00000KT 10SM OVC049 09/05 A3001 RMK AO2
KTMK 052350Z AUTO 00000KT 10SM SCT021 OVC049 09/05 A3001 RMK AO2
KTMK 052330Z AUTO 00000KT 10SM OVC049 09/06 A3001 RMK AO2
KTMK 052310Z AUTO 00000KT 10SM BKN049 08/06 A3000 RMK AO2
KTMK 052250Z AUTO 23003KT 10SM CLR 08/05 A2999 RMK AO2
KTMK 052230Z AUTO 22003KT 10SM CLR 08/05 A2999 RMK AO2
KTMK 052210Z AUTO 27004KT 10SM CLR 10/05 A2999 RMK AO2
KTMK 052150Z AUTO 27004KT 10SM CLR 11/05 A2999 RMK AO2
KTMK 052130Z AUTO 00000KT 10SM CLR 11/05 A2999 RMK AO2
KTMK 052110Z AUTO 00000KT 10SM CLR 11/05 A2999 RMK AO2
KTMK 052050Z AUTO 00000KT 10SM CLR 10/05 A2999 RMK AO2
KTMK 052030Z AUTO 00000KT 10SM CLR 10/05 A2999 RMK AO2
KTMK 052010Z AUTO 00000KT 10SM CLR 09/05 A3000 RMK AO2
KTMK 051950Z AUTO 00000KT 10SM CLR 08/05 A3000 RMK AO2
KTMK 051930Z AUTO 00000KT 10SM CLR 08/05 A3000 RMK AO2
KTMK 051910Z AUTO 00000KT 10SM CLR 07/05 A3001 RMK AO2
KTMK 051850Z AUTO 00000KT 10SM CLR 07/04 A3001 RMK AO2
KTMK 051830Z AUTO 16003KT 10SM CLR 06/04 A3002 RMK AO2